WetterOnline ( https://www.wetteronline.de )

Wetter aktuell Wernigerode

Aktuelles Wetter: Wernigerode (240m)

6-stündlich | Neueste Meldungen
Ortszeit Temperatur Wetter
Mi, 24.04. 14:00 22.3° C wolkenlos
Mi, 24.04. 8:00 11.0° C bedeckt
Mi, 24.04. 2:00 11.5° C bedeckt
Di, 23.04. 20:00 15.7° C leicht bewölkt
Di, 23.04. 14:00 17.5° C leicht bewölkt
Di, 23.04. 8:00 9.0° C wolkenlos
Di, 23.04. 2:00 10.2° C wolkenlos
Mo, 22.04. 20:00 14.6° C wolkenlos
Ortszeit Temperatur Wetter
Mi, 24.04. 18:00 22.9° C leicht bewölkt
Mi, 24.04. 17:50 22.9° C leicht bewölkt
Mi, 24.04. 17:40 23.0° C fast wolkenlos
Mi, 24.04. 17:30 23.2° C wolkenlos
Mi, 24.04. 17:20 23.2° C wolkenlos
Mi, 24.04. 17:10 23.2° C wolkenlos
Mi, 24.04. 17:00 23.4° C wolkenlos
Mi, 24.04. 16:30 23.0° C wolkenlos
Mi, 24.04. 16:00 23.1° C leicht bewölkt
Mi, 24.04. 15:30 24.0° C leicht bewölkt
Mi, 24.04. 15:00 23.8° C wolkenlos
Ortszeit Relative Feuchte Sichtweite
Mi, 24.04. 14:00 45% 45 km
Mi, 24.04. 8:00 77% 27 km
Mi, 24.04. 2:00 71% 35 km
Di, 23.04. 20:00 52% 28 km
Di, 23.04. 14:00 45% 30 km
Di, 23.04. 8:00 65% 40 km
Di, 23.04. 2:00 60% 35 km
Mo, 22.04. 20:00 38% 40 km
Ortszeit Relative Feuchte Sichtweite
Mi, 24.04. 18:00 40% 50 km
Mi, 24.04. 17:50 40% -
Mi, 24.04. 17:40 40% -
Mi, 24.04. 17:30 40% 45 km
Mi, 24.04. 17:20 40% -
Mi, 24.04. 17:10 40% -
Mi, 24.04. 17:00 41% 45 km
Mi, 24.04. 16:30 40% 40 km
Mi, 24.04. 16:00 40% 50 km
Mi, 24.04. 15:30 38% 40 km
Mi, 24.04. 15:00 33% 40 km
Ortszeit Niederschlagsmenge Niederschlagsart
Mi, 24.04. 14:00 0.1 l/m2 in 6 Std. Regen
Mi, 24.04. 8:00 0.1 l/m2 in 12 Std. Regen
Mi, 24.04. 2:00 0.0 l/m2 in 6 Std. -
Di, 23.04. 20:00 0.0 l/m2 in 12 Std. -
Di, 23.04. 14:00 0.0 l/m2 in 6 Std. -
Di, 23.04. 8:00 0.0 l/m2 in 12 Std. -
Di, 23.04. 2:00 0.0 l/m2 in 6 Std. -
Mo, 22.04. 20:00 0.0 l/m2 in 12 Std. -
Ortszeit Niederschlagsmenge Niederschlagsart
Mi, 24.04. 18:00 0.0 l/m2 in 1 Std. -
Mi, 24.04. 17:50 keine Meldung -
Mi, 24.04. 17:40 keine Meldung -
Mi, 24.04. 17:30 0.0 l/m2 in 1 Std. -
Mi, 24.04. 17:20 keine Meldung -
Mi, 24.04. 17:10 keine Meldung -
Mi, 24.04. 17:00 0.0 l/m2 in 1 Std. -
Mi, 24.04. 16:30 0.0 l/m2 in 1 Std. -
Mi, 24.04. 16:00 0.0 l/m2 in 1 Std. -
Mi, 24.04. 15:30 0.0 l/m2 in 1 Std. -
Mi, 24.04. 15:00 0.0 l/m2 in 1 Std. -
Ortszeit Stärke Spitze Richtung
km/h Bft. km/h Grad Sektor
Mi, 24.04. 14:00 19 3 37 80° O
Mi, 24.04. 8:00 7 2 25 20° N
Mi, 24.04. 2:00 11 2 40 110° O
Di, 23.04. 20:00 18 3 61 100° O
Di, 23.04. 14:00 24 4 57 110° O
Di, 23.04. 8:00 18 3 40 100° O
Di, 23.04. 2:00 15 3 43 110° O
Mo, 22.04. 20:00 22 4 54 90° O
Ortszeit Stärke Spitze Richtung
km/h Bft. km/h Grad Sektor
Mi, 24.04. 18:00 20 4 39 100° O
Mi, 24.04. 17:50 20 4 - 100° O
Mi, 24.04. 17:40 22 4 - 90° O
Mi, 24.04. 17:30 22 4 40 100° O
Mi, 24.04. 17:20 22 4 - 100° O
Mi, 24.04. 17:10 18 3 - 100° O
Mi, 24.04. 17:00 18 3 40 90° O
Mi, 24.04. 16:30 22 4 36 80° O
Mi, 24.04. 16:00 22 4 32 80° O
Mi, 24.04. 15:30 15 3 30 90° O
Mi, 24.04. 15:00 11 2 31 150° SO
Ortszeit Untergrenze Bedeckung Gattung
total tief tief mittel hoch
Mi, 24.04. 14:00 - 0/8 0/8 - - -
Mi, 24.04. 8:00 2700 m 8/8 8/8 - - -
Mi, 24.04. 2:00 2700 m 8/8 8/8 - - -
Di, 23.04. 20:00 3300 m 2/8 2/8 - - -
Di, 23.04. 14:00 1380 m 3/8 3/8 - - -
Di, 23.04. 8:00 - 0/8 0/8 - - -
Di, 23.04. 2:00 - 0/8 0/8 - - -
Mo, 22.04. 20:00 - 0/8 0/8 - - -
Ortszeit Bedeckungsgrad in Achtel und Wolkenuntergrenze
Mi, 24.04. 18:00 3(9000m)
Mi, 24.04. 17:50 3(9000m)
Mi, 24.04. 17:40 1(9000m)
Mi, 24.04. 17:30 3(9000m)
Mi, 24.04. 17:20 keine Wolken
Mi, 24.04. 17:10 keine Wolken
Mi, 24.04. 17:00 keine Wolken
Mi, 24.04. 16:30 keine Wolken
Mi, 24.04. 16:00 4(9000m)
Mi, 24.04. 15:30 5(9000m)
Mi, 24.04. 15:00 keine Wolken
Ortszeit Luftdruck NN (hPa) Tendenz (hPa in 3 Std.)
Mi, 24.04. 14:00 1003 + 0,2
Mi, 24.04. 8:00 1004 + 1,0
Mi, 24.04. 2:00 1003 0,0
Di, 23.04. 20:00 1002 - 0,6
Di, 23.04. 14:00 1004 - 1,3
Di, 23.04. 8:00 1008 - 1,1
Di, 23.04. 2:00 1011 - 1,7
Mo, 22.04. 20:00 1012 - 0,6
Ortszeit Luftdruck NN (hPa) Tendenz (hPa in 3 Std.)
Mi, 24.04. 18:00 1002 - 0,6
Mi, 24.04. 17:50 1002 keine Meldung
Mi, 24.04. 17:40 1002 keine Meldung
Mi, 24.04. 17:30 1002 - 0,7
Mi, 24.04. 17:20 1002 keine Meldung
Mi, 24.04. 17:10 1002 keine Meldung
Mi, 24.04. 17:00 1002 - 0,8
Mi, 24.04. 16:30 1002 - 0,7
Mi, 24.04. 16:00 1002 - 0,5
Mi, 24.04. 15:30 1003 - 0,1
Mi, 24.04. 15:00 1003 0,0
Ortszeit Schneehöhe (cm)
Mi, 24.04. 14:00 0
Mi, 24.04. 8:00 0
Mi, 24.04. 2:00 0
Di, 23.04. 20:00 0
Di, 23.04. 14:00 0
Di, 23.04. 8:00 0
Di, 23.04. 2:00 0
Mo, 22.04. 20:00 0
Ortszeit Schneehöhe (cm)
Mi, 24.04. 18:00 0
Mi, 24.04. 17:50 0
Mi, 24.04. 17:40 0
Mi, 24.04. 17:30 0
Mi, 24.04. 17:20 0
Mi, 24.04. 17:10 0
Mi, 24.04. 17:00 0
Mi, 24.04. 16:30 0
Mi, 24.04. 16:00 0
Mi, 24.04. 15:30 0
Mi, 24.04. 15:00 0
Link zu dieser Seite / Seite empfehlen

Das Wetter in ...